Main page
METAR-TAF:

METAR-TAF

Airports :

Tacoma Narrows Airport

Tacoma, Washington, United States

latitude: 47-16-03N, longitude: 122-34-34W, elevation: 315 ft

Current weather observation

The report was made 33 minutes ago, at 19:53 UTC
Wind 9 mph from the North
Temperature 34°F
Humidity 80%
Pressure 29.73 in. Hg
Visibility: 10 miles
Few clouds at a height of 2400 ft
Overcast at a height of 6000 ft

METAR: KTIW 011953Z 36008KT 10SM FEW024 OVC060 01/M02 A2973 RMK AO2 SLP071 T00111022

Time: 12:26 (20:26 UTC)


TAF: missing

Weather observations and forecasts of more than 4000 airports (METAR and TAF reports).

The available stations are represented by yellow and red dots on the map.

Hover mouse over dot to see the name of the station.

Then click to see weather observations and forecasts.

To change the map : click on the green buttons with a black cross to zoom in, on the green button with a dash to zoom out, or on the green arrows for adjacent maps.


METAR-TAF: